Time;durP1;ratioP1;P1;durP2;ratioP2;P2;SDS_P1;SDS_P2;PMS_P1;PMS_P2;Temp;Humidity;BMP_temperature;BMP_pressure;BME280_temperature;BME280_humidity;BME280_pressure;Samples;Min_cycle;Max_cycle;Signal;HPM_P1;HPM_P2
2024/01/07 00:02:19;;;;;;;14.73;6.88;;;-1.20;99.90;;;;;;2585049;54;20986;31
2024/01/07 00:04:59;;;;;;;13.07;5.97;;;-1.10;99.90;;;;;;2603537;46;20768;31
2024/01/07 00:07:40;;;;;;;16.10;6.10;;;-1.10;99.90;;;;;;2591214;46;20977;31
2024/01/07 00:10:23;;;;;;;13.13;5.72;;;-1.10;99.90;;;;;;2584370;54;20022;31
2024/01/07 00:13:11;;;;;;;14.00;6.05;;;-1.20;99.90;;;;;;2585212;54;20022;31
2024/01/07 00:16:21;;;;;;;13.65;5.95;;;-1.20;99.90;;;;;;2604021;46;20042;31
2024/01/07 00:18:58;;;;;;;17.13;6.70;;;-1.20;99.90;;;;;;2585158;54;20036;31
2024/01/07 00:21:39;;;;;;;16.00;7.10;;;-1.20;99.90;;;;;;2585032;54;20244;31
2024/01/07 00:24:21;;;;;;;16.90;6.25;;;-1.20;99.90;;;;;;2585470;54;20242;31
2024/01/07 00:27:08;;;;;;;13.43;4.20;;;-1.40;99.90;;;;;;2603470;46;21053;31
2024/01/07 00:29:50;;;;;;;10.87;5.43;;;-1.30;99.90;;;;;;2585321;54;20080;31
2024/01/07 00:32:29;;;;;;;12.35;5.80;;;-1.30;99.90;;;;;;2587635;46;21237;31
2024/01/07 00:35:02;;;;;;;;;;;-1.40;99.90;;;;;;2585377;54;20026;31
2024/01/07 00:37:37;;;;;;;9.80;5.43;;;-1.40;99.90;;;;;;2603263;46;19957;31
2024/01/07 00:40:13;;;;;;;13.55;5.75;;;-1.40;99.90;;;;;;2585336;54;20026;31
2024/01/07 00:42:48;;;;;;;9.60;4.45;;;-1.50;99.90;;;;;;2603699;46;20820;31
2024/01/07 00:45:24;;;;;;;12.60;5.73;;;-1.50;99.90;;;;;;2603599;46;20068;31
2024/01/07 00:48:01;;;;;;;14.35;6.65;;;-1.50;99.90;;;;;;2584781;54;20823;31
2024/01/07 00:50:34;;;;;;;13.00;5.40;;;-1.50;99.90;;;;;;2585259;54;20064;31
2024/01/07 00:53:08;;;;;;;16.20;6.25;;;-1.50;99.90;;;;;;2585262;54;21029;31
2024/01/07 00:55:40;;;;;;;9.70;4.45;;;-1.50;99.90;;;;;;2603183;46;20939;31
2024/01/07 00:58:13;;;;;;;13.15;5.70;;;-1.50;99.90;;;;;;2584957;54;20045;31
2024/01/07 01:00:47;;;;;;;14.07;4.93;;;-1.50;99.90;;;;;;2585100;54;20905;31
2024/01/07 01:03:25;;;;;;;11.13;4.88;;;-1.50;99.90;;;;;;2584956;54;20052;31
2024/01/07 01:05:58;;;;;;;12.40;5.20;;;-1.50;99.90;;;;;;2584960;54;20022;31
2024/01/07 01:08:32;;;;;;;14.15;5.10;;;-1.50;99.90;;;;;;2655839;39;22173;31
2024/01/07 01:11:09;;;;;;;13.85;5.95;;;-1.50;99.90;;;;;;2585160;54;20779;31
2024/01/07 01:16:12;;;;;;;12.10;4.77;;;-1.50;99.90;;;;;;2584945;54;20917;31
2024/01/07 01:18:48;;;;;;;10.05;5.05;;;-1.60;99.90;;;;;;2585466;54;22232;31
2024/01/07 01:21:22;;;;;;;14.90;5.47;;;-1.60;99.90;;;;;;2603494;47;20030;31
2024/01/07 01:23:57;;;;;;;12.83;5.70;;;-1.60;99.90;;;;;;2584909;54;20171;31
2024/01/07 01:26:31;;;;;;;15.65;5.60;;;-1.60;99.90;;;;;;2585260;54;20992;31
2024/01/07 01:29:04;;;;;;;10.63;5.00;;;-1.50;99.90;;;;;;2603565;47;20038;31
2024/01/07 01:31:37;;;;;;;8.63;4.73;;;-1.60;99.90;;;;;;2585034;54;20030;31
2024/01/07 01:34:14;;;;;;;14.17;5.50;;;-1.60;99.90;;;;;;2585310;54;20270;31
2024/01/07 01:36:47;;;;;;;10.90;5.27;;;-1.60;99.90;;;;;;2585233;54;20253;31
2024/01/07 01:39:21;;;;;;;12.20;6.20;;;-1.60;99.90;;;;;;2603679;47;21217;31
2024/01/07 01:41:56;;;;;;;12.00;5.20;;;-1.60;99.90;;;;;;2584773;54;21013;31
2024/01/07 01:44:31;;;;;;;17.13;6.00;;;-1.60;99.90;;;;;;2584885;54;20026;31
2024/01/07 01:47:06;;;;;;;14.15;5.75;;;-1.60;99.90;;;;;;2585035;54;20927;31
2024/01/07 01:49:42;;;;;;;12.90;5.70;;;-1.70;99.90;;;;;;2584788;54;22469;31
2024/01/07 01:52:16;;;;;;;14.30;5.90;;;-1.70;99.90;;;;;;2603605;47;21235;31
2024/01/07 01:54:50;;;;;;;10.52;5.20;;;-1.70;99.90;;;;;;2584809;54;20956;31
2024/01/07 01:57:25;;;;;;;16.30;5.80;;;-1.70;99.90;;;;;;2584850;54;21049;31
2024/01/07 02:00:03;;;;;;;17.73;5.82;;;-1.80;99.90;;;;;;2603173;47;20271;31
2024/01/07 02:02:37;;;;;;;14.60;6.10;;;-1.80;99.90;;;;;;2603507;47;22269;31
2024/01/07 02:05:15;;;;;;;;;;;-1.70;99.90;;;;;;2585048;54;21010;31
2024/01/07 02:07:48;;;;;;;11.35;5.55;;;-1.80;99.90;;;;;;2584647;54;20837;31
2024/01/07 02:10:22;;;;;;;10.20;5.00;;;-1.80;99.90;;;;;;2585050;54;20909;31
2024/01/07 02:12:56;;;;;;;14.60;5.55;;;-1.80;99.90;;;;;;2584827;54;20030;31
2024/01/07 02:15:28;;;;;;;19.10;6.50;;;-1.80;99.90;;;;;;2584789;54;20802;31
2024/01/07 02:18:01;;;;;;;18.48;6.95;;;-1.80;99.90;;;;;;2585611;54;20111;31
2024/01/07 02:20:38;;;;;;;21.55;7.88;;;-1.80;99.90;;;;;;2656103;39;22177;31
2024/01/07 02:23:13;;;;;;;21.42;8.40;;;-1.80;99.90;;;;;;2604141;46;20929;31
2024/01/07 02:25:52;;;;;;;13.18;6.75;;;-1.90;99.90;;;;;;2585792;54;20035;31
2024/01/07 02:31:24;;;;;;;13.30;6.60;;;-1.90;99.90;;;;;;2629613;39;21098;31
2024/01/07 02:33:57;;;;;;;;;;;-1.90;99.90;;;;;;2586485;54;22248;31
2024/01/07 02:36:32;;;;;;;12.25;5.82;;;-1.90;99.90;;;;;;2585221;54;20842;31
2024/01/07 02:39:06;;;;;;;17.52;7.38;;;-1.90;99.90;;;;;;2702311;39;22403;31
2024/01/07 02:41:42;;;;;;;13.75;6.40;;;-1.90;99.90;;;;;;2585527;54;20030;31
2024/01/07 02:44:15;;;;;;;13.15;5.80;;;-1.90;99.90;;;;;;2585471;54;20027;31
2024/01/07 02:46:48;;;;;;;14.18;5.93;;;-2.00;99.90;;;;;;2585534;54;21038;31
2024/01/07 02:49:22;;;;;;;14.25;5.85;;;-2.00;99.90;;;;;;2604401;46;20022;31
2024/01/07 02:51:57;;;;;;;18.33;5.97;;;-2.00;99.90;;;;;;2585450;54;20153;31
2024/01/07 02:54:30;;;;;;;13.25;6.00;;;-2.00;99.90;;;;;;2585589;54;20038;31
2024/01/07 02:57:05;;;;;;;18.80;6.30;;;-2.00;99.90;;;;;;2585668;54;20144;31
2024/01/07 02:59:38;;;;;;;12.90;5.87;;;-2.00;99.90;;;;;;2585705;54;20975;31
2024/01/07 03:02:11;;;;;;;16.50;6.30;;;-2.00;99.90;;;;;;2585801;54;22321;31
2024/01/07 03:04:46;;;;;;;14.35;6.55;;;-2.00;99.90;;;;;;2603837;46;20817;31
2024/01/07 03:07:19;;;;;;;12.63;6.18;;;-2.00;99.90;;;;;;2585674;54;20986;31
2024/01/07 03:09:53;;;;;;;13.80;6.10;;;-2.10;99.90;;;;;;2585756;54;20030;31
2024/01/07 03:12:28;;;;;;;14.02;6.72;;;-2.10;99.90;;;;;;2603577;46;21010;31
2024/01/07 03:15:05;;;;;;;16.25;6.57;;;-2.10;99.90;;;;;;2585581;54;20961;31
2024/01/07 03:17:39;;;;;;;17.92;7.65;;;-2.20;99.90;;;;;;2585585;54;20965;31
2024/01/07 03:20:14;;;;;;;15.20;6.40;;;-2.20;99.90;;;;;;2604025;46;20100;31
2024/01/07 03:22:47;;;;;;;16.80;6.60;;;-2.20;99.90;;;;;;2585577;54;20749;31
2024/01/07 03:25:19;;;;;;;11.30;5.88;;;-2.20;99.90;;;;;;2701923;39;22520;31
2024/01/07 03:27:55;;;;;;;12.38;5.18;;;-2.20;99.90;;;;;;2585469;54;20064;31
2024/01/07 03:30:31;;;;;;;11.77;5.60;;;-2.20;99.20;;;;;;2603869;46;20922;31
2024/01/07 03:33:06;;;;;;;13.35;5.95;;;-2.20;99.10;;;;;;2585554;54;20030;31
2024/01/07 03:35:40;;;;;;;11.45;5.50;;;-2.20;98.90;;;;;;2585375;54;20893;31
2024/01/07 03:38:14;;;;;;;15.82;5.78;;;-2.20;98.30;;;;;;2603771;46;21000;31
2024/01/07 03:40:47;;;;;;;11.05;5.05;;;-2.20;99.90;;;;;;2585368;54;20046;31
2024/01/07 03:43:23;;;;;;;11.73;5.78;;;-2.20;99.90;;;;;;2603789;46;20995;31
2024/01/07 03:45:57;;;;;;;11.65;4.95;;;-2.10;99.90;;;;;;2585582;54;20033;31
2024/01/07 03:48:32;;;;;;;8.83;4.30;;;-2.10;99.90;;;;;;2603932;46;20054;31
2024/01/07 03:51:05;;;;;;;8.35;4.88;;;-2.10;96.60;;;;;;2604108;46;21050;31
2024/01/07 03:53:40;;;;;;;9.85;4.50;;;-2.10;92.40;;;;;;2585543;54;20054;31
2024/01/07 03:56:12;;;;;;;11.52;5.10;;;-2.10;93.10;;;;;;2585352;54;20044;31
2024/01/07 03:58:48;;;;;;;11.32;4.97;;;-2.10;92.80;;;;;;2585511;54;20034;31
2024/01/07 04:01:22;;;;;;;11.35;5.18;;;-2.10;93.50;;;;;;2585545;54;20026;31
2024/01/07 04:03:56;;;;;;;10.85;4.65;;;-2.00;97.00;;;;;;2585429;54;20078;31
2024/01/07 04:06:30;;;;;;;10.95;4.88;;;-2.00;97.10;;;;;;2683721;39;20784;31
2024/01/07 04:09:06;;;;;;;13.37;6.30;;;-2.00;93.50;;;;;;2585685;54;20050;31
2024/01/07 04:11:43;;;;;;;8.55;4.05;;;-2.00;93.70;;;;;;2585266;54;20755;31
2024/01/07 04:14:20;;;;;;;10.37;4.67;;;-2.10;92.00;;;;;;2585379;54;20120;31
2024/01/07 04:16:54;;;;;;;9.25;4.18;;;-2.10;90.10;;;;;;2585493;54;20875;31
2024/01/07 04:19:27;;;;;;;9.27;4.87;;;-2.10;91.30;;;;;;2585156;54;20082;31
2024/01/07 04:22:01;;;;;;;10.45;4.70;;;-2.20;90.70;;;;;;2585497;54;20884;31
2024/01/07 04:24:34;;;;;;;8.48;4.22;;;-2.20;91.60;;;;;;2585526;54;20810;31
2024/01/07 04:27:08;;;;;;;9.13;4.35;;;-2.20;91.80;;;;;;2585433;54;20976;31
2024/01/07 04:29:46;;;;;;;9.67;4.17;;;-2.20;85.90;;;;;;2584871;54;20026;31
2024/01/07 04:32:20;;;;;;;11.68;4.63;;;-2.20;86.80;;;;;;2585252;54;20821;31
2024/01/07 04:34:56;;;;;;;8.30;4.18;;;-2.20;84.70;;;;;;2585188;54;20937;31
2024/01/07 04:37:29;;;;;;;6.90;3.73;;;-2.20;88.90;;;;;;2603730;46;20919;31
2024/01/07 04:40:04;;;;;;;7.75;4.07;;;-2.20;90.10;;;;;;2604002;46;19949;31
2024/01/07 04:42:39;;;;;;;9.20;5.05;;;-2.20;90.50;;;;;;2584999;54;20930;31
2024/01/07 04:45:16;;;;;;;11.55;5.45;;;-2.20;91.70;;;;;;2603649;46;20932;31
2024/01/07 04:47:49;;;;;;;7.70;4.55;;;-2.20;91.80;;;;;;2603571;46;20083;31
2024/01/07 04:50:26;;;;;;;9.13;4.35;;;-2.20;93.20;;;;;;2603344;46;20026;31
2024/01/07 04:52:59;;;;;;;8.00;4.30;;;-2.20;91.70;;;;;;2603529;46;20940;31
2024/01/07 04:55:33;;;;;;;8.02;3.88;;;-2.20;91.30;;;;;;2585099;54;20026;31
2024/01/07 04:58:07;;;;;;;7.88;3.78;;;-2.20;90.70;;;;;;2585340;54;20072;31
2024/01/07 05:00:43;;;;;;;7.10;3.85;;;-2.20;90.80;;;;;;2650087;39;20880;31
2024/01/07 05:03:17;;;;;;;7.43;3.60;;;-2.20;88.70;;;;;;2603924;46;20085;31
2024/01/07 05:05:52;;;;;;;9.60;5.00;;;-2.30;89.20;;;;;;2585079;54;20042;31
2024/01/07 05:08:24;;;;;;;7.83;3.93;;;-2.20;89.30;;;;;;2701772;39;22172;31
2024/01/07 05:11:00;;;;;;;7.97;4.20;;;-2.20;88.10;;;;;;2585388;54;21172;31
2024/01/07 05:13:34;;;;;;;9.40;4.28;;;-2.30;85.60;;;;;;2585454;54;20061;31
2024/01/07 05:16:11;;;;;;;6.70;3.67;;;-2.30;86.60;;;;;;2585208;54;19941;31
2024/01/07 05:18:48;;;;;;;9.67;4.90;;;-2.30;84.10;;;;;;2585435;54;20944;31
2024/01/07 05:21:24;;;;;;;10.82;5.32;;;-2.30;89.50;;;;;;2584934;54;20031;31
2024/01/07 05:23:56;;;;;;;10.18;5.15;;;-2.30;92.40;;;;;;2585272;54;20030;31
2024/01/07 05:26:30;;;;;;;10.20;5.10;;;-2.20;92.60;;;;;;2584985;54;20030;31
2024/01/07 05:29:04;;;;;;;11.90;4.47;;;-2.30;93.50;;;;;;2585248;54;20035;31
2024/01/07 05:31:42;;;;;;;8.60;3.90;;;-2.30;90.90;;;;;;2585197;54;20030;31
2024/01/07 05:34:16;;;;;;;7.60;4.40;;;-2.30;91.50;;;;;;2585327;54;20945;31
2024/01/07 05:36:50;;;;;;;10.15;5.00;;;-2.30;90.60;;;;;;2585063;54;20093;31
2024/01/07 05:39:24;;;;;;;9.25;4.13;;;-2.30;90.40;;;;;;2584999;54;20932;31
2024/01/07 05:41:59;;;;;;;6.25;3.50;;;-2.40;88.50;;;;;;2585036;54;20925;31
2024/01/07 05:44:34;;;;;;;12.40;4.10;;;-2.40;90.90;;;;;;2585214;54;20026;31
2024/01/07 05:47:09;;;;;;;11.50;5.47;;;-2.40;84.30;;;;;;2584986;54;20958;31
2024/01/07 05:49:43;;;;;;;11.95;4.35;;;-2.40;88.80;;;;;;2585454;54;20946;31
2024/01/07 05:52:15;;;;;;;10.85;4.60;;;-2.40;84.10;;;;;;2603690;47;20817;31
2024/01/07 05:54:48;;;;;;;11.52;4.35;;;-2.40;81.90;;;;;;2585729;54;20030;31
2024/01/07 05:57:22;;;;;;;7.32;3.17;;;-2.50;79.30;;;;;;2585987;54;20027;31
2024/01/07 05:59:55;;;;;;;10.88;3.97;;;-2.50;76.10;;;;;;2603935;46;21034;31
2024/01/07 06:02:30;;;;;;;9.15;4.43;;;-2.50;80.80;;;;;;2585780;54;20792;31
2024/01/07 06:05:05;;;;;;;7.93;3.67;;;-2.50;81.50;;;;;;2585806;54;20983;31
2024/01/07 06:07:38;;;;;;;8.27;3.42;;;-2.50;83.70;;;;;;2585872;54;20034;31
2024/01/07 06:10:14;;;;;;;9.00;4.07;;;-2.50;83.60;;;;;;2585905;54;20053;31
2024/01/07 06:12:48;;;;;;;10.00;4.07;;;-2.50;87.30;;;;;;2585778;54;20948;31
2024/01/07 06:15:21;;;;;;;6.87;3.27;;;-2.60;85.20;;;;;;2702726;39;21189;31
2024/01/07 06:17:57;;;;;;;10.65;3.65;;;-2.60;90.50;;;;;;2604111;46;20926;31
2024/01/07 06:20:31;;;;;;;8.50;3.65;;;-2.60;87.20;;;;;;2585604;54;20054;31
2024/01/07 06:23:05;;;;;;;11.65;4.43;;;-2.70;89.30;;;;;;2585581;54;20983;31
2024/01/07 06:25:39;;;;;;;8.00;4.40;;;-2.70;89.80;;;;;;2604042;46;20836;31
2024/01/07 06:28:14;;;;;;;9.63;3.90;;;-2.60;87.80;;;;;;2585869;54;20073;31
2024/01/07 06:30:46;;;;;;;6.70;3.65;;;-2.60;85.20;;;;;;2585759;54;20049;31
2024/01/07 06:33:22;;;;;;;5.80;3.43;;;-2.60;86.00;;;;;;2585659;54;20104;31
2024/01/07 06:35:55;;;;;;;6.22;3.22;;;-2.60;87.60;;;;;;2585988;54;20356;31
2024/01/07 06:38:29;;;;;;;6.35;3.80;;;-2.60;87.70;;;;;;2585816;54;20032;31
2024/01/07 06:41:04;;;;;;;6.63;4.13;;;-2.60;88.50;;;;;;2585516;54;20998;31
2024/01/07 06:43:39;;;;;;;7.63;4.33;;;-2.60;87.20;;;;;;2585506;54;20038;31
2024/01/07 06:46:13;;;;;;;7.67;4.13;;;-2.60;89.10;;;;;;2585491;54;20064;31
2024/01/07 06:48:49;;;;;;;11.20;4.60;;;-2.60;90.60;;;;;;2585611;54;20171;31
2024/01/07 06:51:24;;;;;;;5.50;2.97;;;-2.60;82.60;;;;;;2585560;54;20023;31
2024/01/07 06:53:58;;;;;;;7.75;3.05;;;-2.60;83.50;;;;;;2585644;54;21014;31
2024/01/07 06:56:30;;;;;;;6.53;3.30;;;-2.60;77.20;;;;;;2585194;54;20031;31
2024/01/07 06:59:04;;;;;;;6.45;3.10;;;-2.70;80.70;;;;;;2585843;54;20031;31
2024/01/07 07:01:37;;;;;;;5.57;2.70;;;-2.70;80.00;;;;;;2585550;54;20954;31
2024/01/07 07:04:15;;;;;;;10.30;5.75;;;-2.70;79.10;;;;;;2585019;54;20958;31
2024/01/07 07:06:48;;;;;;;13.70;4.60;;;-2.70;70.70;;;;;;2585930;54;21442;31
2024/01/07 07:09:22;;;;;;;4.60;2.90;;;-2.80;68.60;;;;;;2603813;46;20970;31
2024/01/07 07:11:56;;;;;;;7.80;4.10;;;-2.80;68.90;;;;;;2603782;46;20794;31
2024/01/07 07:14:29;;;;;;;6.22;3.47;;;-2.80;68.20;;;;;;2585663;54;21003;31
2024/01/07 07:17:03;;;;;;;5.20;3.17;;;-2.80;72.80;;;;;;2585703;54;20030;31
2024/01/07 07:19:39;;;;;;;10.00;3.10;;;-2.80;69.40;;;;;;2604270;46;21131;31
2024/01/07 07:22:17;;;;;;;7.25;3.00;;;-2.80;71.10;;;;;;2585637;54;21938;31
2024/01/07 07:24:52;;;;;;;3.97;2.17;;;-2.80;64.80;;;;;;2603591;46;20085;31
2024/01/07 07:27:29;;;;;;;5.77;2.63;;;-2.90;64.60;;;;;;2604029;46;20787;31
2024/01/07 07:30:09;;;;;;;5.10;2.45;;;-2.90;56.90;;;;;;2585511;54;20938;31
2024/01/07 07:32:46;;;;;;;9.73;3.40;;;-2.90;60.10;;;;;;2585153;54;20962;31
2024/01/07 07:35:39;;;;;;;6.97;2.50;;;-2.90;60.40;;;;;;2585572;54;21256;31
2024/01/07 07:38:19;;;;;;;7.45;2.90;;;-2.90;60.90;;;;;;2585531;54;20958;31
2024/01/07 07:40:57;;;;;;;5.47;2.83;;;-2.90;65.50;;;;;;2585481;54;20908;31
2024/01/07 07:43:35;;;;;;;5.63;2.63;;;-2.90;65.10;;;;;;2585495;54;20881;31
2024/01/07 07:46:11;;;;;;;5.32;2.67;;;-2.90;59.40;;;;;;2585246;54;20027;31
2024/01/07 07:48:46;;;;;;;5.30;2.40;;;-2.90;59.10;;;;;;2585414;54;20650;31
2024/01/07 07:51:31;;;;;;;;;;;-3.00;55.70;;;;;;2585706;54;20938;31
2024/01/07 07:54:09;;;;;;;4.65;2.00;;;-3.00;60.90;;;;;;2585116;54;20073;31
2024/01/07 07:56:45;;;;;;;5.80;3.30;;;-3.00;60.60;;;;;;2585330;54;20030;31
2024/01/07 07:59:28;;;;;;;4.77;2.70;;;-3.00;66.20;;;;;;2585396;54;20242;31
2024/01/07 08:02:10;;;;;;;7.18;3.80;;;-3.00;61.20;;;;;;2603803;46;21060;31
2024/01/07 08:04:48;;;;;;;7.05;3.20;;;-3.10;67.50;;;;;;2585592;54;21042;31
2024/01/07 08:07:38;;;;;;;9.10;2.75;;;-3.00;65.60;;;;;;2585681;54;20027;31
2024/01/07 08:10:21;;;;;;;7.57;3.30;;;-3.00;61.30;;;;;;2585155;54;20821;31
2024/01/07 08:13:03;;;;;;;6.85;3.15;;;-3.00;65.40;;;;;;2603802;46;20859;31
2024/01/07 08:15:39;;;;;;;6.93;2.78;;;-3.00;69.00;;;;;;2584731;54;20068;31
2024/01/07 08:18:16;;;;;;;6.27;3.07;;;-2.90;68.70;;;;;;2585009;54;20834;31
2024/01/07 08:20:52;;;;;;;9.75;3.65;;;-3.00;65.10;;;;;;2585486;54;20991;31
2024/01/07 08:23:29;;;;;;;9.60;3.75;;;-2.90;57.40;;;;;;2585424;54;20077;31
2024/01/07 08:26:15;;;;;;;7.60;3.70;;;-2.90;60.40;;;;;;2585288;54;20905;31
2024/01/07 08:29:03;;;;;;;5.00;3.10;;;-2.90;62.70;;;;;;2754372;31;21323;31
2024/01/07 08:31:44;;;;;;;6.22;3.13;;;-2.90;67.40;;;;;;2584326;54;20768;31
2024/01/07 08:34:31;;;;;;;7.40;3.00;;;-2.80;68.70;;;;;;2584350;54;20034;31
2024/01/07 08:37:17;;;;;;;7.30;2.88;;;-2.80;65.60;;;;;;2585234;54;20064;31
2024/01/07 08:42:46;;;;;;;11.20;4.10;;;-2.70;60.70;;;;;;2585341;54;20124;31
2024/01/07 08:45:43;;;;;;;12.23;4.20;;;-2.70;62.30;;;;;;2585019;54;20065;31
2024/01/07 08:48:18;;;;;;;9.25;3.60;;;-2.60;66.90;;;;;;2585352;54;20108;31
2024/01/07 08:53:45;;;;;;;6.28;3.30;;;-2.50;60.60;;;;;;2584917;54;21017;31
2024/01/07 08:56:27;;;;;;;8.85;3.20;;;-2.40;60.50;;;;;;2584692;54;20042;31
2024/01/07 08:59:08;;;;;;;14.60;7.50;;;-2.40;62.50;;;;;;2603073;46;20034;31
2024/01/07 09:01:53;;;;;;;13.77;6.70;;;-2.30;57.90;;;;;;2683051;39;20897;31
2024/01/07 09:04:32;;;;;;;11.30;6.90;;;-2.30;59.40;;;;;;2603866;46;21169;31
2024/01/07 09:10:13;;;;;;;11.88;4.30;;;-2.00;67.70;;;;;;2585291;54;20045;31
2024/01/07 09:12:53;;;;;;;6.53;4.10;;;-2.00;59.30;;;;;;2584997;54;20030;31
2024/01/07 09:15:37;;;;;;;7.90;3.30;;;-1.80;58.00;;;;;;2588075;46;21221;31
2024/01/07 09:18:18;;;;;;;4.88;2.90;;;-1.80;57.90;;;;;;2585032;54;20949;31
2024/01/07 09:21:18;;;;;;;10.95;5.85;;;-1.70;43.80;;;;;;2603289;46;20080;31
2024/01/07 09:24:02;;;;;;;6.30;3.55;;;-1.70;33.60;;;;;;2584850;54;20968;31
2024/01/07 09:26:37;;;;;;;30.65;10.80;;;-1.80;36.80;;;;;;2585359;54;20030;31
2024/01/07 09:32:22;;;;;;;9.90;4.68;;;-1.60;55.80;;;;;;2604220;46;20022;31
2024/01/07 09:48:15;;;;;;;6.75;3.10;;;-1.40;36.60;;;;;;2586126;54;20029;31
2024/01/07 09:51:19;;;;;;;6.30;2.78;;;-1.50;43.70;;;;;;2585893;54;20081;31
2024/01/07 09:54:14;;;;;;;4.90;2.50;;;-1.60;43.00;;;;;;2586064;54;22281;31
2024/01/07 10:00:02;;;;;;;8.90;3.60;;;-1.70;49.10;;;;;;2585912;54;21902;31
2024/01/07 10:02:56;;;;;;;9.60;3.40;;;-1.70;43.60;;;;;;2585274;54;20027;31
2024/01/07 10:05:48;;;;;;;6.30;3.05;;;-1.80;44.80;;;;;;2585902;54;20921;31
2024/01/07 10:08:53;;;;;;;5.72;2.42;;;-1.90;48.10;;;;;;2592981;46;20698;31
2024/01/07 10:18:30;;;;;;;6.13;2.87;;;-2.10;35.10;;;;;;2585620;54;20022;31
2024/01/07 10:21:07;;;;;;;17.33;5.90;;;-2.10;38.60;;;;;;2588358;46;21114;31
2024/01/07 10:24:12;;;;;;;9.60;3.45;;;-2.10;42.80;;;;;;2587195;46;21727;31
2024/01/07 10:26:54;;;;;;;5.75;2.30;;;-2.10;50.50;;;;;;2585801;54;20082;31
2024/01/07 10:29:29;;;;;;;6.55;2.65;;;-2.20;38.00;;;;;;2585415;54;20916;31
2024/01/07 10:35:36;;;;;;;9.35;3.67;;;-2.20;52.20;;;;;;2603169;46;20052;31
2024/01/07 10:38:21;;;;;;;7.23;3.47;;;-2.20;52.10;;;;;;2585793;54;20977;31
2024/01/07 10:41:00;;;;;;;7.13;3.30;;;-2.20;49.90;;;;;;2683748;39;22683;31
2024/01/07 10:47:00;;;;;;;7.25;3.80;;;-2.30;47.30;;;;;;2603960;46;20879;31
2024/01/07 10:56:11;;;;;;;9.82;3.78;;;-2.50;42.70;;;;;;2585067;54;21057;31
2024/01/07 10:58:46;;;;;;;11.83;4.53;;;-2.60;40.60;;;;;;2589768;46;20010;31
2024/01/07 11:02:12;;;;;;;8.90;3.88;;;-2.60;45.30;;;;;;2701817;39;21097;31
2024/01/07 11:05:22;;;;;;;5.90;3.28;;;-2.60;47.90;;;;;;2585290;54;20942;31
2024/01/07 11:15:06;;;;;;;16.27;4.87;;;-2.80;51.30;;;;;;2682900;39;21493;31
2024/01/07 11:17:50;;;;;;;13.43;5.07;;;-2.80;42.00;;;;;;2585476;54;20861;31
2024/01/07 11:20:27;;;;;;;11.05;4.55;;;-2.80;42.90;;;;;;2586779;46;20037;31
2024/01/07 11:26:55;;;;;;;12.70;5.05;;;-2.80;46.20;;;;;;2585393;54;20864;31
2024/01/07 11:33:20;;;;;;;13.10;4.27;;;-2.80;43.20;;;;;;2583023;54;20061;31
2024/01/07 11:39:40;;;;;;;7.75;3.80;;;-3.00;44.30;;;;;;2585117;54;20602;31
2024/01/07 11:42:17;;;;;;;8.85;4.22;;;-3.00;46.20;;;;;;2585506;54;20790;31
2024/01/07 11:44:53;;;;;;;9.60;4.15;;;-3.10;47.20;;;;;;2600747;46;20802;31
2024/01/07 11:48:19;;;;;;;;;;;;;;;;;;;;;
2024/01/07 11:51:11;;;;;;;9.13;3.75;;;-3.10;43.20;;;;;;2683214;39;20428;31
2024/01/07 12:00:05;;;;;;;10.32;4.93;;;-3.20;44.40;;;;;;2584794;54;20702;31
2024/01/07 12:24:50;;;;;;;17.65;5.70;;;-3.60;50.10;;;;;;2591313;46;21030;31
2024/01/07 12:27:52;;;;;;;15.00;5.20;;;-3.70;49.30;;;;;;2584345;54;21103;31
2024/01/07 12:30:38;;;;;;;10.55;4.68;;;-3.70;46.40;;;;;;2598458;46;20033;31
2024/01/07 12:39:35;;;;;;;23.40;7.20;;;-3.70;53.40;;;;;;2589312;46;20118;31
2024/01/07 12:42:21;;;;;;;11.88;5.45;;;-3.70;56.80;;;;;;2603079;46;22473;31
2024/01/07 12:48:56;;;;;;;12.25;5.35;;;-3.70;50.80;;;;;;2603243;46;20030;31
2024/01/07 12:54:45;;;;;;;11.35;5.55;;;-3.90;44.50;;;;;;2585104;54;20805;31
2024/01/07 12:57:47;;;;;;;8.10;4.30;;;-3.90;47.10;;;;;;2584848;54;20884;31
2024/01/07 13:00:41;;;;;;;13.68;5.70;;;-3.90;48.70;;;;;;2603729;46;20145;31
2024/01/07 13:03:41;;;;;;;13.95;4.50;;;-3.90;47.20;;;;;;2585040;54;20848;31
2024/01/07 13:06:27;;;;;;;8.50;3.37;;;-3.90;52.00;;;;;;2584965;54;20928;31
2024/01/07 13:09:25;;;;;;;10.60;5.70;;;-4.00;53.00;;;;;;2584817;54;21010;31
2024/01/07 13:14:53;;;;;;;22.97;10.80;;;-4.00;45.00;;;;;;2585177;54;20089;31
2024/01/07 13:17:33;;;;;;;18.95;6.95;;;-4.00;42.30;;;;;;2682800;39;21086;31
2024/01/07 13:20:12;;;;;;;14.48;6.32;;;-4.00;46.90;;;;;;2585318;54;21899;31
2024/01/07 13:23:10;;;;;;;16.30;6.15;;;-4.10;50.70;;;;;;2585318;54;20022;31
2024/01/07 13:26:02;;;;;;;14.70;6.20;;;-4.10;51.80;;;;;;2603246;47;21073;31
2024/01/07 13:28:47;;;;;;;14.07;5.93;;;-4.00;51.00;;;;;;2584892;54;20231;31
2024/01/07 13:31:23;;;;;;;13.88;5.90;;;-4.00;49.30;;;;;;2584971;54;21141;31
2024/01/07 13:34:10;;;;;;;19.60;6.77;;;-4.10;43.80;;;;;;2585157;54;20053;31
2024/01/07 13:39:34;;;;;;;17.15;8.30;;;-4.20;46.40;;;;;;2584902;54;20936;31
2024/01/07 13:42:12;;;;;;;;;;;-4.20;43.20;;;;;;2603723;47;20053;31
2024/01/07 13:44:48;;;;;;;18.88;7.30;;;-4.30;35.70;;;;;;2584820;54;19934;31
2024/01/07 13:47:26;;;;;;;16.60;5.50;;;-4.40;40.80;;;;;;2701559;39;20904;31
2024/01/07 13:50:00;;;;;;;14.50;5.18;;;-4.40;39.00;;;;;;2585006;54;20029;31
2024/01/07 13:52:42;;;;;;;26.03;9.70;;;-4.50;39.40;;;;;;2602866;47;21973;31
2024/01/07 13:55:18;;;;;;;20.35;6.22;;;-4.50;42.50;;;;;;2584767;54;21178;31
2024/01/07 13:57:55;;;;;;;15.65;6.90;;;-4.50;42.40;;;;;;2585022;54;20120;31
2024/01/07 14:00:33;;;;;;;18.10;7.75;;;-4.50;43.50;;;;;;2683297;39;22415;31
2024/01/07 14:03:11;;;;;;;23.00;9.25;;;-4.60;41.20;;;;;;2585241;54;21154;31
2024/01/07 14:05:51;;;;;;;12.55;5.60;;;-4.50;41.00;;;;;;2603537;47;20046;31
2024/01/07 14:08:31;;;;;;;15.00;6.20;;;-4.60;40.40;;;;;;2603314;47;20026;31
2024/01/07 14:11:13;;;;;;;15.50;7.00;;;-4.60;48.10;;;;;;2584698;54;20927;31
2024/01/07 14:13:49;;;;;;;22.48;7.82;;;-4.70;47.60;;;;;;2585636;54;20926;31
2024/01/07 14:16:24;;;;;;;13.05;6.50;;;-4.70;44.90;;;;;;2604196;46;20121;31
2024/01/07 14:19:02;;;;;;;17.88;7.22;;;-4.60;48.40;;;;;;2584965;54;21014;31
2024/01/07 14:21:41;;;;;;;15.90;6.85;;;-4.70;47.80;;;;;;2585207;54;20971;31
2024/01/07 14:24:19;;;;;;;20.20;7.90;;;-4.70;48.40;;;;;;2596445;46;20903;31
2024/01/07 14:26:56;;;;;;;16.20;6.95;;;-4.70;51.30;;;;;;2584909;54;20058;31
2024/01/07 14:29:35;;;;;;;12.23;6.60;;;-4.70;48.30;;;;;;2585730;54;20030;31
2024/01/07 14:32:12;;;;;;;;;;;-4.70;49.40;;;;;;2603473;46;20092;31
2024/01/07 14:34:54;;;;;;;13.43;5.68;;;-4.80;47.40;;;;;;2584843;54;20796;31
2024/01/07 14:37:32;;;;;;;20.80;7.60;;;-4.80;51.80;;;;;;2587244;46;20054;31
2024/01/07 14:43:06;;;;;;;14.77;5.90;;;-4.90;49.20;;;;;;2585676;54;20033;31
2024/01/07 14:45:48;;;;;;;13.80;7.10;;;-4.90;52.80;;;;;;2604077;46;20973;31
2024/01/07 14:48:26;;;;;;;17.30;7.60;;;-5.00;49.30;;;;;;2585495;54;20868;31
2024/01/07 14:51:30;;;;;;;19.95;6.75;;;-5.00;50.00;;;;;;2585896;54;20064;31
2024/01/07 14:54:22;;;;;;;10.00;5.20;;;-5.00;49.70;;;;;;2585417;54;20083;31
2024/01/07 14:57:01;;;;;;;17.55;6.80;;;-5.10;49.00;;;;;;2603919;46;22446;31
2024/01/07 14:59:37;;;;;;;20.00;8.75;;;-5.00;87.40;;;;;;2584564;54;20029;31
2024/01/07 15:02:15;;;;;;;13.10;6.85;;;-5.00;61.00;;;;;;2604050;46;20985;31
2024/01/07 15:04:54;;;;;;;14.95;7.20;;;-4.90;54.60;;;;;;2603997;46;21120;31
2024/01/07 15:07:33;;;;;;;19.00;8.15;;;-4.90;58.80;;;;;;2590150;46;20030;31
2024/01/07 15:10:16;;;;;;;13.25;6.25;;;-5.00;57.10;;;;;;2603949;46;20037;31
2024/01/07 15:12:57;;;;;;;19.30;10.50;;;-5.00;57.80;;;;;;2585930;54;20048;31
2024/01/07 15:15:48;;;;;;;22.50;10.00;;;-5.10;53.00;;;;;;2604204;46;20927;31
2024/01/07 15:18:24;;;;;;;14.65;7.55;;;-5.10;55.10;;;;;;2604452;46;20957;31
2024/01/07 15:21:02;;;;;;;;;;;-5.20;59.30;;;;;;2585791;54;20970;31
2024/01/07 15:23:41;;;;;;;12.60;5.43;;;-5.20;57.40;;;;;;2585332;54;20767;31
2024/01/07 15:26:19;;;;;;;24.03;9.27;;;-5.20;56.90;;;;;;2585168;54;20953;31
2024/01/07 15:29:19;;;;;;;15.30;7.85;;;-5.30;59.00;;;;;;2585477;54;20762;31
2024/01/07 15:31:54;;;;;;;19.20;8.70;;;-5.30;61.00;;;;;;2585174;54;20889;31
2024/01/07 15:34:32;;;;;;;20.70;8.90;;;-5.30;62.60;;;;;;2585573;54;20119;31
2024/01/07 15:37:07;;;;;;;;;;;-5.30;67.80;;;;;;2585630;54;20057;31
2024/01/07 15:39:43;;;;;;;17.95;7.53;;;-5.30;69.70;;;;;;2603519;46;20012;31
2024/01/07 15:42:22;;;;;;;16.98;8.25;;;-5.30;70.10;;;;;;2585208;54;20084;31
2024/01/07 15:45:00;;;;;;;16.67;8.25;;;-5.30;69.20;;;;;;2585080;54;20058;31
2024/01/07 15:47:35;;;;;;;16.43;8.50;;;-5.30;71.10;;;;;;2585203;54;20109;31
2024/01/07 15:50:12;;;;;;;20.67;8.27;;;-5.40;68.60;;;;;;2585865;54;21200;31
2024/01/07 15:52:48;;;;;;;20.20;9.30;;;-5.40;68.20;;;;;;2585597;54;20031;31
2024/01/07 15:55:22;;;;;;;21.92;10.32;;;-5.50;70.50;;;;;;2683742;39;21092;31